OIMB  Birjand Airport

Add Bookmark

Birjand, Iran

Status
Operational
Latitude Longitude
32° 53' 53" N 59° 15' 57" E
32.898056 59.266111
Local (DST + 5) UTC (GMT + 4)
Jan 28, 2015 10:00 Jan 28, 2015 06:30
Sunrise-Sunset Local UTC
Begin Civil Twilight 06:03 02:33
Sunrise 06:29 02:59
Sunset 05:02 13:32
End Civil Twilight 05:28 13:58

Current Weather

METAR Observed VFR
OIMB 280600Z 00000KT CAVOK 09/M04 Q1020 Wed, Jan 28, 2015 @ 06:00 UTC
(30 Minutes ago)
Visual Flight Rules
Wind Visibility Clouds Conditions
Calm 10 km or more
  • Clear skies
  • No significant weather
Temperatures Readings Precipitation
Current Temp 9°C (48°F)
Dewpoint -4°C (25°F)
Humidity 40%
Altimeter 30.12"Hg
Sea Level Pressure 1020mb
Field Elevation 4891.73'
None Recorded

Additional weather within a 185.2km radius of OIMB

Map ICAO Location
OIMD 170.2km N (342°)

24 Hour Weather History

Loading
-

24 Hour Weather Graphs

Loading
-

CheckWX.com is intended as a tool to help pilots better visualize weather data. It is not intended as a substitute for an official weather briefing obtained from a Flight Service Station. CheckWX.com does not meet the FAA requirements for an official pre-flight weather briefing. Therefore, it's important that pilots still call and obtain an official FSS pre-flight weather briefing.